createdAt,value
2022-08-24T00:00:38.377Z,0.00
2022-08-24T00:01:38.369Z,0.00
2022-08-24T00:02:38.486Z,0.00
2022-08-24T00:03:38.472Z,0.00
2022-08-24T00:04:38.334Z,0.00
2022-08-24T00:05:38.324Z,0.00
2022-08-24T00:06:38.313Z,0.00
2022-08-24T00:07:38.316Z,0.00
2022-08-24T00:08:38.291Z,0.00
2022-08-24T00:09:38.282Z,0.00
2022-08-24T00:10:38.268Z,0.00
2022-08-24T00:11:38.259Z,0.00
2022-08-24T00:12:38.246Z,0.00
2022-08-24T00:13:39.467Z,0.00
2022-08-24T00:14:38.224Z,0.00
2022-08-24T00:15:38.214Z,0.00
2022-08-24T00:16:38.240Z,0.00
2022-08-24T00:17:38.194Z,0.00
2022-08-24T00:18:38.192Z,0.00
2022-08-24T00:19:38.174Z,0.00
2022-08-24T00:20:40.045Z,0.00
2022-08-24T00:21:39.149Z,0.00
2022-08-24T00:22:38.137Z,0.00
2022-08-24T00:23:38.141Z,0.00
2022-08-24T00:24:38.119Z,0.00
2022-08-24T00:25:38.104Z,0.00
2022-08-24T00:26:38.094Z,0.00
2022-08-24T00:27:38.085Z,0.00
2022-08-24T00:28:38.080Z,0.00
2022-08-24T00:29:38.065Z,0.00
2022-08-24T00:30:38.050Z,0.00
2022-08-24T00:31:38.112Z,0.00
2022-08-24T00:32:38.026Z,0.00
2022-08-24T00:33:38.040Z,0.00
2022-08-24T00:34:38.007Z,0.00
2022-08-24T00:35:37.996Z,0.00
2022-08-24T00:36:37.983Z,0.00
2022-08-24T00:37:37.978Z,0.00
2022-08-24T00:38:37.973Z,0.00
2022-08-24T00:39:37.952Z,0.00
2022-08-24T00:40:37.939Z,0.00
2022-08-24T00:41:37.929Z,0.00
2022-08-24T00:42:37.918Z,0.00
2022-08-24T00:43:37.923Z,0.00
2022-08-24T00:44:37.898Z,0.00
2022-08-24T00:45:37.906Z,0.00
2022-08-24T00:46:37.876Z,0.00
2022-08-24T00:47:37.865Z,0.00
2022-08-24T00:48:37.862Z,0.00
2022-08-24T00:49:37.843Z,0.00
2022-08-24T00:50:37.831Z,0.00
2022-08-24T00:51:37.823Z,0.00
2022-08-24T00:52:37.808Z,0.00
2022-08-24T00:53:37.812Z,0.00
2022-08-24T00:54:37.792Z,0.00
2022-08-24T00:55:37.779Z,0.00
2022-08-24T00:56:37.765Z,0.00
2022-08-24T00:57:37.755Z,0.00
2022-08-24T00:58:37.762Z,0.00
2022-08-24T00:59:37.732Z,0.00
2022-08-24T01:00:37.799Z,0.00
2022-08-24T01:01:37.753Z,0.00
2022-08-24T01:02:37.743Z,0.00
2022-08-24T01:03:37.717Z,0.00
2022-08-24T01:04:37.676Z,0.00
2022-08-24T01:05:37.667Z,0.00
2022-08-24T01:06:37.654Z,0.00
2022-08-24T01:07:37.646Z,0.00
2022-08-24T01:08:37.643Z,0.00
2022-08-24T01:09:37.625Z,0.00
2022-08-24T01:10:37.610Z,0.00
2022-08-24T01:11:37.602Z,0.00
2022-08-24T01:12:37.589Z,0.00
2022-08-24T01:13:37.595Z,0.00
2022-08-24T01:14:37.566Z,0.00
2022-08-24T01:15:37.567Z,0.00
2022-08-24T01:16:37.602Z,0.00
2022-08-24T01:17:39.057Z,0.00
2022-08-24T01:18:37.538Z,0.00
2022-08-24T01:19:37.512Z,0.00
2022-08-24T01:20:37.503Z,0.00
2022-08-24T01:21:37.496Z,0.00
2022-08-24T01:22:37.479Z,0.00
2022-08-24T01:23:37.478Z,0.00
2022-08-24T01:24:37.458Z,0.00
2022-08-24T01:25:37.446Z,0.00
2022-08-24T01:26:37.834Z,0.00
2022-08-24T01:27:37.426Z,0.00
2022-08-24T01:28:37.424Z,0.00
2022-08-24T01:29:37.406Z,0.00
2022-08-24T01:30:37.393Z,0.00
2022-08-24T01:31:37.459Z,0.00
2022-08-24T01:32:37.370Z,0.00
2022-08-24T01:33:37.374Z,0.00
2022-08-24T01:34:37.347Z,0.00
2022-08-24T01:35:37.337Z,0.00
2022-08-24T01:36:37.328Z,0.00
2022-08-24T01:37:37.319Z,0.00
2022-08-24T01:38:37.323Z,0.00
2022-08-24T01:39:37.294Z,0.00
2022-08-24T01:40:37.283Z,0.00
2022-08-24T01:41:37.272Z,0.00
2022-08-24T01:42:37.259Z,0.00
2022-08-24T01:43:37.449Z,0.00
2022-08-24T01:44:37.249Z,0.00
2022-08-24T01:45:37.229Z,0.00
2022-08-24T01:46:37.327Z,0.00
2022-08-24T01:47:37.208Z,0.00
2022-08-24T01:48:37.205Z,0.00
2022-08-24T01:49:37.187Z,0.00
2022-08-24T01:50:37.174Z,0.00
2022-08-24T01:51:37.164Z,0.00
2022-08-24T01:53:01.831Z,0.00
2022-08-24T01:53:38.151Z,0.00
2022-08-24T01:54:37.126Z,0.00
2022-08-24T01:55:37.117Z,0.00
2022-08-24T01:56:37.867Z,0.00
2022-08-24T01:57:37.097Z,0.00
2022-08-24T01:58:37.097Z,0.00
2022-08-24T01:59:37.075Z,0.00
2022-08-24T02:00:37.061Z,0.00
2022-08-24T02:01:37.110Z,0.00
2022-08-24T02:02:37.063Z,0.00
2022-08-24T02:03:37.039Z,0.00
2022-08-24T02:04:37.019Z,0.00
2022-08-24T02:05:37.008Z,0.00
2022-08-24T02:06:37.000Z,0.00
2022-08-24T02:07:36.986Z,0.00
2022-08-24T02:08:36.985Z,0.00
2022-08-24T02:09:36.964Z,0.00
2022-08-24T02:10:36.957Z,0.00
2022-08-24T02:11:36.943Z,0.00
2022-08-24T02:12:36.941Z,0.00
2022-08-24T02:13:36.922Z,0.00
2022-08-24T02:14:36.909Z,0.00
2022-08-24T02:15:36.952Z,0.00
2022-08-24T02:16:36.888Z,0.00
2022-08-24T02:17:36.893Z,0.00
2022-08-24T02:18:36.864Z,0.00
2022-08-24T02:19:36.856Z,0.00
2022-08-24T02:20:36.841Z,0.00
2022-08-24T02:21:36.836Z,0.00
2022-08-24T02:22:36.832Z,0.00
2022-08-24T02:23:36.811Z,0.00
2022-08-24T02:24:36.797Z,0.00
2022-08-24T02:25:36.790Z,0.00
2022-08-24T02:26:36.776Z,0.00
2022-08-24T02:27:36.779Z,0.00
2022-08-24T02:28:36.756Z,0.00
2022-08-24T02:29:36.744Z,0.00
2022-08-24T02:30:36.733Z,0.00
2022-08-24T02:31:36.796Z,0.00
2022-08-24T02:32:36.725Z,0.00
2022-08-24T02:33:36.706Z,0.00
2022-08-24T02:34:36.688Z,0.00
2022-08-24T02:35:36.683Z,0.00
2022-08-24T02:36:36.667Z,0.00
2022-08-24T02:37:36.671Z,0.00
2022-08-24T02:38:37.644Z,0.00
2022-08-24T02:39:36.635Z,0.00
2022-08-24T02:40:36.623Z,0.00
2022-08-24T02:41:36.614Z,0.00
2022-08-24T02:42:36.612Z,0.00
2022-08-24T02:43:36.591Z,0.00
2022-08-24T02:44:36.577Z,0.00
2022-08-24T02:45:36.570Z,0.00
2022-08-24T02:46:36.613Z,0.00
2022-08-24T02:47:38.739Z,0.00
2022-08-24T02:48:36.538Z,0.00
2022-08-24T02:49:36.525Z,0.00
2022-08-24T02:50:36.513Z,0.00
2022-08-24T02:51:42.237Z,0.00
2022-08-24T02:52:37.506Z,0.00
2022-08-24T02:53:36.481Z,0.00
2022-08-24T02:54:36.468Z,0.00
2022-08-24T02:55:36.460Z,0.00
2022-08-24T02:56:36.447Z,0.00
2022-08-24T02:57:36.449Z,0.00
2022-08-24T02:58:36.424Z,0.00
2022-08-24T02:59:36.414Z,0.00
2022-08-24T03:00:36.406Z,0.00
2022-08-24T03:01:36.497Z,0.00
2022-08-24T03:02:36.422Z,0.00
2022-08-24T03:03:36.375Z,0.00
2022-08-24T03:04:36.360Z,0.00
2022-08-24T03:05:36.349Z,0.00
2022-08-24T03:06:36.338Z,0.00
2022-08-24T03:07:36.337Z,0.00
2022-08-24T03:08:36.319Z,0.00
2022-08-24T03:09:36.307Z,0.00
2022-08-24T03:10:36.300Z,0.00
2022-08-24T03:11:36.285Z,0.00
2022-08-24T03:12:36.289Z,0.00
2022-08-24T03:13:36.259Z,0.00
2022-08-24T03:14:36.254Z,0.00
2022-08-24T03:15:36.285Z,0.00
2022-08-24T03:16:36.230Z,0.00
2022-08-24T03:17:36.233Z,0.00
2022-08-24T03:18:36.209Z,0.00
2022-08-24T03:19:36.197Z,0.00
2022-08-24T03:20:36.186Z,0.00
2022-08-24T03:21:36.174Z,0.00
2022-08-24T03:22:36.176Z,0.00
2022-08-24T03:23:36.157Z,0.00
2022-08-24T03:24:36.143Z,0.00
2022-08-24T03:25:36.130Z,0.00
2022-08-24T03:26:36.123Z,0.00
2022-08-24T03:27:36.119Z,0.00
2022-08-24T03:28:36.100Z,0.00
2022-08-24T03:29:36.141Z,0.00
2022-08-24T03:30:36.175Z,0.00
2022-08-24T03:31:36.065Z,0.00
2022-08-24T03:32:36.062Z,4.00
2022-08-24T03:33:36.047Z,4.00
2022-08-24T03:34:36.032Z,0.00
2022-08-24T03:35:36.019Z,4.00
2022-08-24T03:36:36.013Z,4.00
2022-08-24T03:37:36.000Z,0.00
2022-08-24T03:38:36.000Z,4.00
2022-08-24T03:39:35.980Z,8.00
2022-08-24T03:40:36.020Z,4.00
2022-08-24T03:41:36.552Z,4.00
2022-08-24T03:42:35.946Z,4.00
2022-08-24T03:43:35.943Z,12.00
2022-08-24T03:44:35.926Z,12.00
2022-08-24T03:45:36.025Z,8.00
2022-08-24T03:46:35.900Z,12.00
2022-08-24T03:47:35.890Z,16.00
2022-08-24T03:48:35.894Z,16.00
2022-08-24T03:49:35.867Z,20.00
2022-08-24T03:50:35.858Z,24.00
2022-08-24T03:51:35.844Z,24.00
2022-08-24T03:52:35.834Z,28.00
2022-08-24T03:53:35.833Z,32.00
2022-08-24T03:54:35.823Z,36.00
2022-08-24T03:55:35.812Z,40.00
2022-08-24T03:56:35.794Z,48.00
2022-08-24T03:57:35.778Z,48.00
2022-08-24T03:58:35.780Z,56.00
2022-08-24T03:59:37.697Z,60.00
2022-08-24T04:00:36.746Z,68.00
2022-08-24T04:01:35.770Z,76.00
2022-08-24T04:02:35.750Z,80.00
2022-08-24T04:03:35.725Z,88.00
2022-08-24T04:04:35.703Z,96.00
2022-08-24T04:05:35.692Z,104.00
2022-08-24T04:06:35.682Z,112.00
2022-08-24T04:07:35.670Z,120.00
2022-08-24T04:08:35.672Z,128.00
2022-08-24T04:09:35.647Z,140.00
2022-08-24T04:10:35.640Z,148.00
2022-08-24T04:11:38.399Z,160.00
2022-08-24T04:12:36.613Z,168.00
2022-08-24T04:13:35.618Z,180.00
2022-08-24T04:14:35.596Z,192.00
2022-08-24T04:15:35.581Z,204.00
2022-08-24T04:16:35.586Z,216.00
2022-08-24T04:17:35.560Z,228.00
2022-08-24T04:18:35.562Z,248.00
2022-08-24T04:19:35.537Z,260.00
2022-08-24T04:20:35.529Z,276.00
2022-08-24T04:21:35.663Z,288.00
2022-08-24T04:22:35.509Z,308.00
2022-08-24T04:23:47.454Z,324.00
2022-08-24T04:24:36.483Z,344.00
2022-08-24T04:25:35.471Z,360.00
2022-08-24T04:26:45.050Z,384.00
2022-08-24T04:27:36.468Z,404.00
2022-08-24T04:28:35.452Z,424.00
2022-08-24T04:29:35.427Z,448.00
2022-08-24T04:30:35.419Z,468.00
2022-08-24T04:31:35.490Z,496.00
2022-08-24T04:32:35.397Z,524.00
2022-08-24T04:33:35.394Z,552.00
2022-08-24T04:34:35.375Z,576.00
2022-08-24T04:35:35.363Z,600.00
2022-08-24T04:36:35.353Z,624.00
2022-08-24T04:37:35.341Z,648.00
2022-08-24T04:38:35.343Z,672.00
2022-08-24T04:39:35.318Z,696.00
2022-08-24T04:40:35.309Z,720.00
2022-08-24T04:41:35.297Z,748.00
2022-08-24T04:42:35.288Z,776.00
2022-08-24T04:43:35.305Z,804.00
2022-08-24T04:44:35.267Z,832.00
2022-08-24T04:45:35.311Z,856.00
2022-08-24T04:46:35.243Z,888.00
2022-08-24T04:47:35.231Z,912.00
2022-08-24T04:48:35.235Z,940.00
2022-08-24T04:49:35.209Z,968.00
2022-08-24T04:50:35.199Z,996.00
2022-08-24T04:51:36.784Z,1028.00
2022-08-24T04:52:35.177Z,1060.00
2022-08-24T04:53:35.176Z,1092.00
2022-08-24T04:54:35.156Z,1112.00
2022-08-24T04:55:35.141Z,1148.00
2022-08-24T04:56:35.134Z,1184.00
2022-08-24T04:57:35.133Z,1244.00
2022-08-24T04:58:35.111Z,1328.00
2022-08-24T04:59:35.102Z,1352.00
2022-08-24T05:00:35.163Z,1336.00
2022-08-24T05:01:35.082Z,1336.00
2022-08-24T05:02:39.842Z,1364.00
2022-08-24T05:03:36.055Z,1396.00
2022-08-24T05:04:35.049Z,1428.00
2022-08-24T05:05:35.039Z,1484.00
2022-08-24T05:06:35.035Z,1524.00
2022-08-24T05:07:35.029Z,1516.00
2022-08-24T05:08:35.007Z,1536.00
2022-08-24T05:09:35.000Z,1564.00
2022-08-24T05:10:34.985Z,1592.00
2022-08-24T05:11:34.972Z,1616.00
2022-08-24T05:12:34.976Z,1652.00
2022-08-24T05:13:34.953Z,1692.00
2022-08-24T05:14:34.942Z,1716.00
2022-08-24T05:15:34.958Z,1756.00
2022-08-24T05:16:34.942Z,1800.00
2022-08-24T05:17:34.926Z,1820.00
2022-08-24T05:18:34.899Z,1860.00
2022-08-24T05:19:34.888Z,1896.00
2022-08-24T05:20:34.880Z,1936.00
2022-08-24T05:21:34.867Z,1980.00
2022-08-24T05:22:34.860Z,2012.00
2022-08-24T05:23:34.855Z,2040.00
2022-08-24T05:24:34.844Z,2076.00
2022-08-24T05:25:34.823Z,2116.00
2022-08-24T05:26:34.830Z,2164.00
2022-08-24T05:27:34.803Z,2192.00
2022-08-24T05:28:34.804Z,2216.00
2022-08-24T05:29:34.808Z,2252.00
2022-08-24T05:30:37.349Z,2300.00
2022-08-24T05:31:34.795Z,2356.00
2022-08-24T05:32:34.788Z,2412.00
2022-08-24T05:33:34.758Z,2468.00
2022-08-24T05:34:34.728Z,2516.00
2022-08-24T05:35:34.724Z,2608.00
2022-08-24T05:36:34.708Z,2676.00
2022-08-24T05:37:34.701Z,2640.00
2022-08-24T05:38:34.699Z,2664.00
2022-08-24T05:39:34.675Z,2732.00
2022-08-24T05:40:34.665Z,2828.00
2022-08-24T05:41:34.652Z,2916.00
2022-08-24T05:42:34.730Z,3124.00
2022-08-24T05:43:34.630Z,3288.00
2022-08-24T05:44:34.622Z,3564.00
2022-08-24T05:45:34.608Z,3476.00
2022-08-24T05:46:34.653Z,3220.00
2022-08-24T05:47:34.599Z,3140.00
2022-08-24T05:48:34.577Z,3216.00
2022-08-24T05:49:37.279Z,3080.00
2022-08-24T05:50:35.554Z,3172.00
2022-08-24T05:51:34.568Z,3408.00
2022-08-24T05:52:34.542Z,3504.00
2022-08-24T05:53:34.521Z,3204.00
2022-08-24T05:54:34.512Z,3320.00
2022-08-24T05:55:34.497Z,3476.00
2022-08-24T05:56:34.490Z,3656.00
2022-08-24T05:57:34.489Z,3756.00
2022-08-24T05:58:34.475Z,3800.00
2022-08-24T05:59:34.457Z,3816.00
2022-08-24T06:00:34.444Z,3680.00
2022-08-24T06:01:34.550Z,3592.00
2022-08-24T06:02:34.612Z,3684.00
2022-08-24T06:03:34.418Z,3408.00
2022-08-24T06:04:34.403Z,3244.00
2022-08-24T06:05:34.386Z,3188.00
2022-08-24T06:06:34.377Z,3168.00
2022-08-24T06:07:34.365Z,3348.00
2022-08-24T06:08:38.062Z,3448.00
2022-08-24T06:09:35.366Z,3696.00
2022-08-24T06:10:36.684Z,3916.00
2022-08-24T06:11:34.319Z,3952.00
2022-08-24T06:12:34.309Z,3908.00
2022-08-24T06:13:34.305Z,4000.00
2022-08-24T06:14:34.287Z,4024.00
2022-08-24T06:15:34.272Z,3940.00
2022-08-24T06:16:34.277Z,3908.00
2022-08-24T06:17:34.360Z,3544.00
2022-08-24T06:18:34.251Z,2984.00
2022-08-24T06:19:34.230Z,2640.00
2022-08-24T06:20:34.217Z,2472.00
2022-08-24T06:21:34.207Z,2408.00
2022-08-24T06:22:34.197Z,2340.00
2022-08-24T06:23:34.192Z,2164.00
2022-08-24T06:24:34.172Z,2208.00
2022-08-24T06:25:34.161Z,2188.00
2022-08-24T06:26:34.155Z,2332.00
2022-08-24T06:27:34.139Z,2404.00
2022-08-24T06:28:34.135Z,2352.00
2022-08-24T06:29:34.115Z,2228.00
2022-08-24T06:30:34.106Z,2200.00
2022-08-24T06:31:39.434Z,2332.00
2022-08-24T06:32:35.082Z,2316.00
2022-08-24T06:33:34.082Z,2316.00
2022-08-24T06:34:34.060Z,2308.00
2022-08-24T06:35:34.047Z,2176.00
2022-08-24T06:36:34.040Z,1964.00
2022-08-24T06:37:34.026Z,1816.00
2022-08-24T06:38:34.023Z,1868.00
2022-08-24T06:39:34.004Z,1732.00
2022-08-24T06:40:34.074Z,1528.00
2022-08-24T06:41:33.982Z,1408.00
2022-08-24T06:42:33.972Z,1332.00
2022-08-24T06:43:33.970Z,1268.00
2022-08-24T06:44:33.948Z,1240.00
2022-08-24T06:45:33.937Z,1212.00
2022-08-24T06:46:33.967Z,1200.00
2022-08-24T06:47:33.914Z,1204.00
2022-08-24T06:48:33.920Z,1216.00
2022-08-24T06:49:33.892Z,1252.00
2022-08-24T06:50:33.882Z,1248.00
2022-08-24T06:51:33.870Z,1216.00
2022-08-24T06:52:33.860Z,1148.00
2022-08-24T06:53:33.858Z,1152.00
2022-08-24T06:54:33.841Z,1176.00
2022-08-24T06:55:33.827Z,1164.00
2022-08-24T06:56:33.816Z,1172.00
2022-08-24T06:57:33.836Z,1164.00
2022-08-24T06:58:33.794Z,1128.00
2022-08-24T06:59:33.780Z,1112.00
2022-08-24T07:00:33.771Z,1108.00
2022-08-24T07:01:33.827Z,1084.00
2022-08-24T07:02:33.811Z,1064.00
2022-08-24T07:03:33.736Z,1084.00
2022-08-24T07:04:33.728Z,1152.00
2022-08-24T07:05:33.716Z,1240.00
2022-08-24T07:06:33.705Z,1312.00
2022-08-24T07:07:33.705Z,1360.00
2022-08-24T07:08:33.689Z,1408.00
2022-08-24T07:09:33.673Z,1456.00
2022-08-24T07:10:33.663Z,1492.00
2022-08-24T07:11:33.654Z,1508.00
2022-08-24T07:12:33.655Z,1512.00
2022-08-24T07:13:33.630Z,1516.00
2022-08-24T07:14:33.620Z,1548.00
2022-08-24T07:15:33.684Z,1616.00
2022-08-24T07:16:33.598Z,1732.00
2022-08-24T07:17:33.598Z,1864.00
2022-08-24T07:18:33.574Z,1972.00
2022-08-24T07:19:33.567Z,2076.00
2022-08-24T07:20:33.552Z,2184.00
2022-08-24T07:21:33.542Z,2284.00
2022-08-24T07:22:33.540Z,2368.00
2022-08-24T07:23:42.063Z,2444.00
2022-08-24T07:24:34.506Z,2508.00
2022-08-24T07:25:33.500Z,2576.00
2022-08-24T07:26:33.489Z,2704.00
2022-08-24T07:27:33.487Z,2860.00
2022-08-24T07:28:33.465Z,2980.00
2022-08-24T07:29:56.495Z,3108.00
2022-08-24T07:30:34.441Z,3432.00
2022-08-24T07:31:35.611Z,3524.00
2022-08-24T07:32:33.434Z,3516.00
2022-08-24T07:33:33.411Z,3552.00
2022-08-24T07:34:33.415Z,3492.00
2022-08-24T07:35:33.415Z,3440.00
2022-08-24T07:36:33.378Z,3712.00
2022-08-24T07:37:41.076Z,3852.00
2022-08-24T07:38:34.353Z,4140.00
2022-08-24T07:39:33.346Z,4456.00
2022-08-24T07:40:44.511Z,4488.00
2022-08-24T07:41:43.459Z,4288.00
2022-08-24T07:42:34.372Z,3852.00
2022-08-24T07:43:33.302Z,3432.00
2022-08-24T07:44:33.289Z,3204.00
2022-08-24T07:45:33.285Z,3132.00
2022-08-24T07:46:33.307Z,3128.00
2022-08-24T07:47:44.723Z,3308.00
2022-08-24T07:48:34.253Z,3612.00
2022-08-24T07:49:37.443Z,3828.00
2022-08-24T07:50:34.887Z,3860.00
2022-08-24T07:52:33.208Z,3884.00
2022-08-24T07:53:52.619Z,3896.00
2022-08-24T07:54:34.174Z,4032.00
2022-08-24T07:55:33.171Z,4568.00
2022-08-24T07:56:33.157Z,6924.00
2022-08-24T07:57:33.188Z,6484.00
2022-08-24T07:58:33.132Z,6844.00
2022-08-24T07:59:33.122Z,7488.00
2022-08-24T08:00:33.114Z,7284.00
2022-08-24T08:01:33.250Z,7296.00
2022-08-24T08:02:36.423Z,7336.00
2022-08-24T08:03:33.077Z,7984.00
2022-08-24T08:04:33.087Z,8600.00
2022-08-24T08:05:33.065Z,11772.00
2022-08-24T08:06:33.067Z,8856.00
2022-08-24T08:07:33.064Z,8196.00
2022-08-24T08:08:33.023Z,7620.00
2022-08-24T08:09:33.010Z,7540.00
2022-08-24T08:10:32.998Z,8120.00
2022-08-24T08:11:32.988Z,10336.00
2022-08-24T08:12:32.985Z,8716.00
2022-08-24T08:13:32.979Z,8144.00
2022-08-24T08:14:32.953Z,8172.00
2022-08-24T08:15:33.046Z,8948.00
2022-08-24T08:16:33.024Z,13868.00
2022-08-24T08:17:32.939Z,19552.00
2022-08-24T08:18:32.910Z,18784.00
2022-08-24T08:19:32.902Z,18560.00
2022-08-24T08:20:32.890Z,16288.00
2022-08-24T08:21:32.880Z,25696.00
2022-08-24T08:22:32.892Z,45312.00
2022-08-24T08:23:32.864Z,44928.00
2022-08-24T08:24:32.847Z,43904.00
2022-08-24T08:25:32.838Z,30048.00
2022-08-24T08:26:32.827Z,31232.00
2022-08-24T08:27:32.855Z,42688.00
2022-08-24T08:28:35.624Z,41440.00
2022-08-24T08:29:32.802Z,43328.00
2022-08-24T08:30:32.786Z,31392.00
2022-08-24T08:31:34.426Z,41472.00
2022-08-24T08:32:32.771Z,39936.00
2022-08-24T08:33:32.756Z,39808.00
2022-08-24T08:34:32.761Z,39488.00
2022-08-24T08:35:32.745Z,39968.00
2022-08-24T08:36:32.721Z,40416.00
2022-08-24T08:37:32.773Z,40352.00
2022-08-24T08:38:32.701Z,40416.00
2022-08-24T08:39:32.689Z,42560.00
2022-08-24T08:40:32.681Z,36032.00
2022-08-24T08:41:32.710Z,41792.00
2022-08-24T08:42:32.667Z,43680.00
2022-08-24T08:43:32.651Z,42208.00
2022-08-24T08:44:32.640Z,40736.00
2022-08-24T08:45:32.629Z,40992.00
2022-08-24T08:46:33.957Z,26912.00
2022-08-24T08:47:32.652Z,37888.00
2022-08-24T08:48:32.594Z,42464.00
2022-08-24T08:49:32.592Z,41952.00
2022-08-24T08:50:32.615Z,41344.00
2022-08-24T08:51:32.598Z,42016.00
2022-08-24T08:52:32.576Z,34080.00
2022-08-24T08:53:32.548Z,12836.00
2022-08-24T08:54:32.583Z,7472.00
2022-08-24T08:55:32.543Z,7888.00
2022-08-24T08:56:32.535Z,8648.00
2022-08-24T08:57:32.547Z,6840.00
2022-08-24T08:58:32.641Z,7144.00
2022-08-24T08:59:32.488Z,6820.00
2022-08-24T09:00:32.481Z,5904.00
2022-08-24T09:01:32.811Z,6028.00
2022-08-24T09:02:32.468Z,6228.00
2022-08-24T09:03:32.449Z,7144.00
2022-08-24T09:04:32.482Z,7028.00
2022-08-24T09:05:32.428Z,6636.00
2022-08-24T09:06:32.415Z,8528.00
2022-08-24T09:07:32.422Z,27424.00
2022-08-24T09:08:32.395Z,9724.00
2022-08-24T09:09:34.958Z,6760.00
2022-08-24T09:10:32.374Z,5764.00
2022-08-24T09:11:32.371Z,5560.00
2022-08-24T09:12:32.367Z,6656.00
2022-08-24T09:13:32.343Z,6376.00
2022-08-24T09:14:32.336Z,7348.00
2022-08-24T09:15:32.323Z,6804.00
2022-08-24T09:16:32.543Z,5820.00
2022-08-24T09:17:32.319Z,5496.00
2022-08-24T09:18:32.290Z,5348.00
2022-08-24T09:19:32.281Z,5456.00
2022-08-24T09:20:32.269Z,7324.00
2022-08-24T09:21:32.274Z,5552.00
2022-08-24T09:22:32.250Z,4536.00
2022-08-24T09:23:32.245Z,4404.00
2022-08-24T09:24:32.232Z,4624.00
2022-08-24T09:25:32.216Z,4496.00
2022-08-24T09:26:32.218Z,4112.00
2022-08-24T09:27:32.196Z,3996.00
2022-08-24T09:28:32.186Z,4224.00
2022-08-24T09:29:32.175Z,4336.00
2022-08-24T09:30:32.207Z,4180.00
2022-08-24T09:32:32.142Z,4620.00
2022-08-24T09:33:32.155Z,6532.00
2022-08-24T09:34:32.121Z,6348.00
2022-08-24T09:35:32.111Z,5424.00
2022-08-24T09:36:32.163Z,5476.00
2022-08-24T09:37:32.089Z,8092.00
2022-08-24T09:38:32.078Z,5456.00
2022-08-24T09:39:32.068Z,5748.00
2022-08-24T09:40:32.078Z,7176.00
2022-08-24T09:41:32.063Z,17184.00
2022-08-24T09:42:32.035Z,14612.00
2022-08-24T09:43:32.028Z,8508.00
2022-08-24T09:44:32.015Z,8056.00
2022-08-24T09:45:32.005Z,8028.00
2022-08-24T09:46:32.026Z,8048.00
2022-08-24T09:47:31.999Z,8220.00
2022-08-24T09:48:31.974Z,9292.00
2022-08-24T09:49:31.960Z,28256.00
2022-08-24T09:50:31.962Z,9916.00
2022-08-24T09:51:31.972Z,10504.00
2022-08-24T09:52:31.927Z,17056.00
2022-08-24T09:53:31.937Z,13328.00
2022-08-24T09:54:31.940Z,13180.00
2022-08-24T09:55:31.913Z,24864.00
2022-08-24T09:56:31.886Z,23200.00
2022-08-24T09:57:50.415Z,11004.00
2022-08-24T09:58:32.862Z,9820.00
2022-08-24T09:59:31.883Z,9660.00
2022-08-24T10:00:31.896Z,10784.00
2022-08-24T10:01:31.886Z,19392.00
2022-08-24T10:02:31.916Z,10536.00
2022-08-24T10:03:36.205Z,7032.00
2022-08-24T10:04:32.902Z,5944.00
2022-08-24T10:05:36.036Z,6160.00
2022-08-24T10:06:31.777Z,4352.00
2022-08-24T10:07:31.804Z,4124.00
2022-08-24T10:08:31.759Z,4476.00
2022-08-24T10:09:31.748Z,4928.00
2022-08-24T10:10:31.735Z,6620.00
2022-08-24T10:11:31.740Z,5904.00
2022-08-24T10:12:31.723Z,5872.00
2022-08-24T10:13:31.706Z,5792.00
2022-08-24T10:14:31.702Z,5484.00
2022-08-24T10:15:31.696Z,5896.00
2022-08-24T10:16:31.780Z,9244.00
2022-08-24T10:17:31.664Z,5252.00
2022-08-24T10:18:35.086Z,5272.00
2022-08-24T10:19:31.644Z,5584.00
2022-08-24T10:20:31.629Z,6264.00
2022-08-24T10:21:31.635Z,7664.00
2022-08-24T10:22:31.608Z,7316.00
2022-08-24T10:23:31.597Z,10620.00
2022-08-24T10:24:31.586Z,9152.00
2022-08-24T10:25:31.592Z,10256.00
2022-08-24T10:26:31.574Z,15696.00
2022-08-24T10:27:31.557Z,24224.00
2022-08-24T10:28:31.543Z,20032.00
2022-08-24T10:29:31.534Z,10544.00
2022-08-24T10:30:31.533Z,11932.00
2022-08-24T10:31:31.596Z,22688.00
2022-08-24T10:32:31.499Z,12988.00
2022-08-24T10:33:31.493Z,12444.00
2022-08-24T10:34:31.483Z,12004.00
2022-08-24T10:35:31.559Z,12504.00
2022-08-24T10:36:31.471Z,13328.00
2022-08-24T10:37:31.451Z,11740.00
2022-08-24T10:38:31.449Z,10936.00
2022-08-24T10:39:31.471Z,10504.00
2022-08-24T10:40:31.473Z,10544.00
2022-08-24T10:41:31.408Z,10428.00
2022-08-24T10:42:31.394Z,9956.00
2022-08-24T10:43:31.385Z,10188.00
2022-08-24T10:44:31.387Z,9688.00
2022-08-24T10:45:31.443Z,9540.00
2022-08-24T10:46:31.360Z,8884.00
2022-08-24T10:47:31.342Z,8432.00
2022-08-24T10:48:33.434Z,7908.00
2022-08-24T10:49:31.332Z,7396.00
2022-08-24T10:50:31.442Z,7072.00
2022-08-24T10:51:31.304Z,7024.00
2022-08-24T10:52:31.292Z,7220.00
2022-08-24T10:53:31.279Z,7196.00
2022-08-24T10:54:31.278Z,7192.00
2022-08-24T10:55:31.261Z,7016.00
2022-08-24T10:56:31.246Z,7424.00
2022-08-24T10:57:31.236Z,8868.00
2022-08-24T10:58:31.223Z,8940.00
2022-08-24T10:59:31.753Z,8356.00
2022-08-24T11:00:31.203Z,7224.00
2022-08-24T11:01:31.243Z,7156.00
2022-08-24T11:02:31.275Z,6776.00
2022-08-24T11:03:31.171Z,5708.00
2022-08-24T11:04:31.171Z,5484.00
2022-08-24T11:05:31.152Z,6072.00
2022-08-24T11:06:31.138Z,6928.00
2022-08-24T11:07:31.132Z,7100.00
2022-08-24T11:08:31.121Z,6500.00
2022-08-24T11:09:31.124Z,6340.00
2022-08-24T11:10:31.095Z,6628.00
2022-08-24T11:11:31.085Z,7144.00
2022-08-24T11:12:31.073Z,6512.00
2022-08-24T11:13:31.065Z,4888.00
2022-08-24T11:14:31.061Z,4764.00
2022-08-24T11:15:31.091Z,5028.00
2022-08-24T11:16:31.143Z,5380.00
2022-08-24T11:17:31.042Z,5612.00
2022-08-24T11:18:31.014Z,5864.00
2022-08-24T11:19:31.021Z,5736.00
2022-08-24T11:20:30.990Z,6032.00
2022-08-24T11:21:30.981Z,6348.00
2022-08-24T11:22:30.967Z,6136.00
2022-08-24T11:23:31.809Z,6040.00
2022-08-24T11:24:30.959Z,6164.00
2022-08-24T11:25:30.936Z,6236.00
2022-08-24T11:26:30.926Z,6420.00
2022-08-24T11:27:30.915Z,6512.00
2022-08-24T11:28:30.907Z,6548.00
2022-08-24T11:29:30.904Z,6748.00
2022-08-24T11:30:30.888Z,7256.00
2022-08-24T11:31:35.068Z,6864.00
2022-08-24T11:32:30.874Z,5732.00
2022-08-24T11:33:30.849Z,5392.00
2022-08-24T11:34:30.852Z,4940.00
2022-08-24T11:35:30.832Z,4840.00
2022-08-24T11:36:30.820Z,4660.00
2022-08-24T11:37:30.926Z,5172.00
2022-08-24T11:38:30.800Z,5364.00
2022-08-24T11:39:30.792Z,5592.00
2022-08-24T11:40:30.896Z,5868.00
2022-08-24T11:41:30.767Z,5748.00
2022-08-24T11:42:30.849Z,5592.00
2022-08-24T11:43:30.740Z,5248.00
2022-08-24T11:44:30.745Z,4496.00
2022-08-24T11:45:30.719Z,4696.00
2022-08-24T11:46:30.760Z,5036.00
2022-08-24T11:47:30.696Z,5308.00
2022-08-24T11:48:30.688Z,5572.00
2022-08-24T11:49:30.703Z,5952.00
2022-08-24T11:50:30.673Z,6132.00
2022-08-24T11:51:30.655Z,6016.00
2022-08-24T11:52:30.646Z,6344.00
2022-08-24T11:53:30.655Z,5924.00
2022-08-24T11:54:30.624Z,5468.00
2022-08-24T11:55:30.707Z,5152.00
2022-08-24T11:56:31.601Z,5008.00
2022-08-24T11:57:30.590Z,4896.00
2022-08-24T11:58:30.582Z,4748.00
2022-08-24T11:59:30.581Z,5028.00
2022-08-24T12:00:30.587Z,5040.00
2022-08-24T12:01:30.547Z,4800.00
2022-08-24T12:02:30.646Z,4728.00
2022-08-24T12:03:30.525Z,4500.00
2022-08-24T12:04:30.523Z,4288.00
2022-08-24T12:05:30.504Z,4876.00
2022-08-24T12:06:31.482Z,4936.00
2022-08-24T12:07:30.481Z,4908.00
2022-08-24T12:08:30.474Z,4596.00
2022-08-24T12:09:30.469Z,4312.00
2022-08-24T12:10:32.848Z,4004.00
2022-08-24T12:11:30.441Z,4420.00
2022-08-24T12:12:30.430Z,4164.00
2022-08-24T12:13:30.416Z,4224.00
2022-08-24T12:14:30.428Z,4092.00
2022-08-24T12:15:30.396Z,3832.00
2022-08-24T12:16:30.450Z,3736.00
2022-08-24T12:17:30.374Z,3612.00
2022-08-24T12:18:30.366Z,3600.00
2022-08-24T12:19:30.411Z,3500.00
2022-08-24T12:20:30.347Z,3500.00
2022-08-24T12:21:30.331Z,3484.00
2022-08-24T12:22:30.321Z,3536.00
2022-08-24T12:23:30.316Z,3612.00
2022-08-24T12:24:30.314Z,3640.00
2022-08-24T12:25:30.289Z,3664.00
2022-08-24T12:26:30.280Z,3716.00
2022-08-24T12:27:30.265Z,3788.00
2022-08-24T12:28:30.269Z,3780.00